Centennial, WY

9:37 AM MDT on May 29, 2015 (GMT -0600)
Laramie Regional | | Change Station
CLOSE
Current Station
Airport
Location: Laramie,
Elevation: 7270 ft
Nearby Weather Stations

Elev 7270 ft 41.32 °N, 105.67 °W | Updated 29 minutes ago

Overcast
Overcast
45 °F
Feels Like 38 °F
N
16
Wind Variable Wind from North

Today
High -- | Low -- °F
--% Chance of Precip.
Yesterday
High -- | Low -- °F
Precip. -- in
5:35 AM 8:28 PM
Waxing Gibbous, 84% visible
Pressure 30.28 in
Visibility 10.0 miles
Clouds Scattered Clouds 1500 ft
Mostly Cloudy 3800 ft
Overcast 7500 ft
Windchill 38 °F
Dew Point 39 °F
Humidity 80%
Rainfall 0.00 in
Snow Depth Not available.
UV 2 out of 12
Pollen 4.10 out of 12
Air Quality Not available.
Flu Activity Sporadic
SPECI KLAR 291508Z AUTO 35014KT 10SM -RA SCT015 BKN038 OVC075 07/04 A3028 RMK AO2 RAB1458 P0000 T00720039

More Conditions Fewer Conditions

Pressure 30.28 in
Visibility 10.0 miles
Clouds Scattered Clouds 1500 ft
Mostly Cloudy 3800 ft
Overcast 7500 ft
Windchill 38 °F
Dew Point 39 °F
Humidity 80%
Rainfall 0.00 in
Snow Depth Not available.
UV 2 out of 12
Pollen 4.10 out of 12
Air Quality Not available.
Flu Activity Sporadic
SPECI KLAR 291508Z AUTO 35014KT 10SM -RA SCT015 BKN038 OVC075 07/04 A3028 RMK AO2 RAB1458 P0000 T00720039

More Conditions Fewer Conditions

10-Day Weather Forecast

Almanac

Astronomy

May. 29, 2015 Rise Set
Actual Time
Civil Twilight
Nautical Twilight
Astronomical Twilight
Moon
Length of Visible Light
Length of Day
Tomorrow will be .
, % of the Moon is Illuminated

Today's Extremes

State Highs State Lows

Community

WunderPhotos

Upload Photos

1,825,292 photos uploaded!

WunderBlogs® & News

Nearby

Air Quality

  Air Quality AQ Index Pollutant
Not available.

Snow Depth

Station Depth Elevation

Earthquake Activity

City Distance Mag. Time & Date
Minimum magnitude displayed is 2.5.

Coastal Water Temperatures

Place Temperature

Stations

Nearby Weather Stations

Station Location Temp. Windchill Dew Point Humidity Wind Precip. Elev Updated Type